Avondale, CO

12:23 AM MDT on August 31, 2014 (GMT -0600)
Pueblo Memorial | Change Station
CLOSE
Current Station
Airport
Location: Pueblo,
Elevation: 4721 ft
Nearby Weather Stations

Elev 4721 ft 38.29 °N, 104.50 °W | Updated 30 minutes ago

Clear
Clear
71 °F
Feels Like 71 °F
N
10
Wind Variable Wind from North

Today
High -- | Low -- °F
--% Chance of Precip.
Yesterday
High -- | Low -- °F
Precip. -- in
6:26 AM 7:28 PM
Waxing Crescent, 28% visible
Pressure 29.71 in
Visibility 10.0 miles
Clouds Clear
Dew Point 43 °F
Humidity 36%
Rainfall 0.00 in
Snow Depth Not available.
UV 0 out of 12
Pollen 10.20 out of 12
Air Quality Not available.
Flu Activity Not available.
METAR KPUB 310553Z AUTO 35009KT 10SM CLR 22/06 A2992 RMK AO2 SLP061 T02170061 10328 20217 58005

More Conditions Fewer Conditions

Pressure 29.71 in
Visibility 10.0 miles
Clouds Clear
Dew Point 43 °F
Humidity 36%
Rainfall 0.00 in
Snow Depth Not available.
UV 0 out of 12
Pollen 10.20 out of 12
Air Quality Not available.
Flu Activity Not available.
METAR KPUB 310553Z AUTO 35009KT 10SM CLR 22/06 A2992 RMK AO2 SLP061 T02170061 10328 20217 58005

More Conditions Fewer Conditions

10-Day Weather Forecast

Almanac

Astronomy

Aug. 31, 2014 Rise Set
Actual Time 6:26 AM MDT 7:28 PM MDT
Civil Twilight 5:59 AM MDT 7:55 PM MDT
Nautical Twilight 5:27 AM MDT 8:27 PM MDT
Astronomical Twilight 4:53 AM MDT 9:00 PM MDT
Moon 12:09 PM MDT 10:51 PM MDT
Length of Visible Light 13h 56m
Length of Day
13h 02m
Tomorrow will be 2m 22s shorter.
Waxing Crescent, 28% of the Moon is Illuminated
Today
Waxing Crescent
Sep 2
First Quarter
Sep 8
Full
Sep 15
Last Quarter
Sep 24
New

Community

WunderPhotos

Upload Photos

1,748,801 photos uploaded!

Nearby

Snow Depth

Station Depth Elevation
Medano Pass 0 in 9620 ft
Ute Creek 0 in 10650 ft
Apishapa 0 in 10000 ft
Trinchera 0 in 10860 ft
Culebra #2 0 in 10500 ft

Earthquake Activity

City Distance Mag. Time & Date
No recent earthquake activity has been reported nearby.
Minimum magnitude displayed is 2.5.

Coastal Water Temperatures

Place Temperature
No Stations Reporting

Nearby Weather Stations